createdAt,value
2023-02-17T00:00:01.645Z,1009.971234185777
2023-02-17T00:15:02.418Z,1009.8101610992172
2023-02-17T00:30:02.189Z,1009.7915843761969
2023-02-17T00:45:01.901Z,1009.7795018284995
2023-02-17T01:00:01.569Z,1009.734153842229
2023-02-17T01:15:02.250Z,1009.7342639672797
2023-02-17T01:30:02.107Z,1009.6741675918779
2023-02-17T01:45:01.886Z,1009.5774145816337
2023-02-17T02:00:01.563Z,1009.2810893954058
2023-02-17T02:15:02.208Z,1009.0495608057412
2023-02-17T02:30:01.933Z,1009.0372875298546
2023-02-17T02:45:01.657Z,1008.9392717820515
2023-02-17T03:00:01.360Z,1008.4882355923775
2023-02-17T03:15:02.056Z,1008.3327548001209
2023-02-17T03:30:01.795Z,1008.2919989498907
2023-02-17T03:45:01.490Z,1008.2193722518567
2023-02-17T04:00:02.201Z,1008.1492559527868
2023-02-17T04:15:02.250Z,1008.2276554320431
2023-02-17T04:30:02.006Z,1008.0250792914635
2023-02-17T04:45:01.736Z,1007.6626271162407
2023-02-17T05:00:02.337Z,1007.7722898611358
2023-02-17T05:15:01.921Z,1007.7250368158143
2023-02-17T05:30:01.551Z,1007.5175994579255
2023-02-17T05:45:02.192Z,1007.51729711672
2023-02-17T06:00:01.768Z,1007.2877851632255
2023-02-17T06:15:02.543Z,1007.4231084162374
2023-02-17T06:30:02.265Z,1007.3571901180638
2023-02-17T06:45:01.953Z,1007.3445851396247
2023-02-17T07:00:01.582Z,1007.3090898154804
2023-02-17T07:15:02.258Z,1007.0301391346619
2023-02-17T07:30:01.972Z,1007.1371514061036
2023-02-17T07:45:01.599Z,1007.0517886778504
2023-02-17T08:00:02.228Z,1006.967799905633
2023-02-17T08:15:02.025Z,1006.9021466590368
2023-02-17T08:30:01.715Z,1006.5758305173613
2023-02-17T08:45:01.404Z,1006.7360995153762
2023-02-17T09:00:02.053Z,1006.9503388852023
2023-02-17T09:15:01.784Z,1007.0491686953505
2023-02-17T09:30:01.524Z,1007.1619857868901
2023-02-17T09:45:02.190Z,1007.180637369092
2023-02-17T10:00:01.860Z,1007.0646229089388
2023-02-17T10:15:01.601Z,1006.5302782337095
2023-02-17T10:30:01.322Z,1006.4302991580887
2023-02-17T10:45:02.074Z,1006.3595808246714
2023-02-17T11:00:01.712Z,1006.4891494056369
2023-02-17T11:15:01.344Z,1006.2864516694981
2023-02-17T11:30:02.101Z,1006.150648596375
2023-02-17T11:45:01.794Z,1006.3883715231765
2023-02-17T12:00:01.492Z,1006.6819928458334
2023-02-17T12:15:02.399Z,1006.6381877211566
2023-02-17T12:30:02.172Z,1006.6023055090851
2023-02-17T12:45:01.839Z,1006.5982768564963
2023-02-17T13:00:01.470Z,1006.6723692857347
2023-02-17T13:15:02.130Z,1006.9024832318288
2023-02-17T13:30:01.885Z,1007.2581978794951
2023-02-17T13:45:01.601Z,1007.3842950371526
2023-02-17T14:00:02.247Z,1007.0938324874093
2023-02-17T14:15:01.889Z,1007.0833751340391
2023-02-17T14:30:03.760Z,1007.199691688711
2023-02-17T14:45:01.878Z,1007.295181034192
2023-02-17T15:00:01.512Z,1007.5094154926676
2023-02-17T15:15:02.145Z,1007.6825970436287
2023-02-17T15:30:01.871Z,1007.6616925584035
2023-02-17T15:45:01.536Z,1007.7988808364638
2023-02-17T16:00:02.161Z,1007.9829763419791
2023-02-17T16:15:01.824Z,1008.1479951954094
2023-02-17T16:30:01.582Z,1008.4018226342044
2023-02-17T16:45:02.286Z,1008.506451229361
2023-02-17T17:00:01.964Z,1008.6915331359647
2023-02-17T17:15:01.613Z,1008.5857545559265
2023-02-17T17:30:01.558Z,1009.3770042784001
2023-02-17T17:45:01.292Z,1010.0676925911785
2023-02-17T18:00:01.926Z,1010.4166979955247
2023-02-17T18:15:01.593Z,1010.9913884669155
2023-02-17T18:30:01.399Z,1011.2909860306457
2023-02-17T18:45:02.120Z,1011.4828217745919
2023-02-17T19:00:01.773Z,1011.5212801430782
2023-02-17T19:15:01.508Z,1011.7258960750904
2023-02-17T19:30:01.253Z,1011.7889500487446
2023-02-17T19:45:01.931Z,1011.8520614773581
2023-02-17T20:00:01.616Z,1012.0313962603129
2023-02-17T20:15:01.566Z,1012.3724538319699
2023-02-17T20:30:02.498Z,1012.2862063012808
2023-02-17T20:45:02.845Z,1012.4516430195944
2023-02-17T21:00:01.507Z,1012.5362108184528
2023-02-17T21:15:02.149Z,1012.4027792862543
2023-02-17T21:30:01.920Z,1012.5812599505003
2023-02-17T21:45:01.603Z,1012.5881191770626
2023-02-17T22:00:02.232Z,1012.7643681048758
2023-02-17T22:15:01.886Z,1012.8159760774588
2023-02-17T22:30:01.586Z,1012.6257850408334
2023-02-17T22:45:02.233Z,1012.5483505664871
2023-02-17T23:00:01.926Z,1012.5391189418733
2023-02-17T23:15:01.615Z,1012.5526709026401
2023-02-17T23:30:02.305Z,1012.5060271676635
2023-02-17T23:45:01.992Z,1012.4452795637077
